createdAt,value
2023-12-17T00:01:04.877Z,16.36
2023-12-17T00:03:31.638Z,16.15
2023-12-17T00:05:58.354Z,16.26
2023-12-17T00:08:24.968Z,16.34
2023-12-17T00:10:51.548Z,16.61
2023-12-17T00:13:18.230Z,16.75
2023-12-17T00:15:44.820Z,16.29
2023-12-17T00:18:11.595Z,16.46
2023-12-17T00:20:38.401Z,15.94
2023-12-17T00:23:05.050Z,15.53
2023-12-17T00:25:31.660Z,16.08
2023-12-17T00:27:58.302Z,15.80
2023-12-17T00:30:25.017Z,15.29
2023-12-17T00:32:53.328Z,15.66
2023-12-17T00:35:20.149Z,15.55
2023-12-17T00:37:46.736Z,14.85
2023-12-17T00:40:13.366Z,14.93
2023-12-17T00:42:39.969Z,15.44
2023-12-17T00:45:06.560Z,15.37
2023-12-17T00:47:33.229Z,14.84
2023-12-17T00:49:59.804Z,15.04
2023-12-17T00:52:26.390Z,14.70
2023-12-17T00:54:52.979Z,14.60
2023-12-17T00:57:19.657Z,14.62
2023-12-17T00:59:46.299Z,14.27
2023-12-17T01:02:12.907Z,13.64
2023-12-17T01:04:39.536Z,13.83
2023-12-17T01:07:06.126Z,14.11
2023-12-17T01:09:32.720Z,13.33
2023-12-17T01:11:59.357Z,13.75
2023-12-17T01:14:25.996Z,13.21
2023-12-17T01:16:52.714Z,13.50
2023-12-17T01:19:19.487Z,13.34
2023-12-17T01:21:46.167Z,13.32
2023-12-17T01:24:12.922Z,13.20
2023-12-17T01:26:39.698Z,12.89
2023-12-17T01:29:06.309Z,12.99
2023-12-17T01:31:32.869Z,13.21
2023-12-17T01:33:59.574Z,12.90
2023-12-17T01:36:26.236Z,13.18
2023-12-17T01:38:52.929Z,13.30
2023-12-17T01:41:19.537Z,13.64
2023-12-17T01:43:46.126Z,14.38
2023-12-17T01:46:12.756Z,14.09
2023-12-17T01:48:39.572Z,14.31
2023-12-17T01:51:06.243Z,14.36
2023-12-17T01:53:32.835Z,14.61
2023-12-17T01:55:59.447Z,14.78
2023-12-17T01:58:26.171Z,14.71
2023-12-17T02:00:52.805Z,15.17
2023-12-17T02:03:19.688Z,14.17
2023-12-17T02:05:46.501Z,14.65
2023-12-17T02:08:13.080Z,14.18
2023-12-17T02:10:39.653Z,14.96
2023-12-17T02:13:06.226Z,15.21
2023-12-17T02:15:32.839Z,14.74
2023-12-17T02:17:59.568Z,15.22
2023-12-17T02:20:26.181Z,14.67
2023-12-17T02:22:52.753Z,14.66
2023-12-17T02:25:19.354Z,14.68
2023-12-17T02:27:45.934Z,14.87
2023-12-17T02:30:12.596Z,14.64
2023-12-17T02:32:39.268Z,14.80
2023-12-17T02:35:05.889Z,14.51
2023-12-17T02:37:32.507Z,14.88
2023-12-17T02:39:59.080Z,15.08
2023-12-17T02:42:25.689Z,15.33
2023-12-17T02:44:52.349Z,15.49
2023-12-17T02:47:18.946Z,14.77
2023-12-17T02:49:45.599Z,14.57
2023-12-17T02:52:12.244Z,14.64
2023-12-17T02:54:38.811Z,13.97
2023-12-17T02:57:05.695Z,13.90
2023-12-17T02:59:32.287Z,14.21
2023-12-17T03:01:58.908Z,14.77
2023-12-17T03:04:25.495Z,15.55
2023-12-17T03:06:52.093Z,14.91
2023-12-17T03:09:18.776Z,15.84
2023-12-17T03:11:45.464Z,15.91
2023-12-17T03:14:12.091Z,15.95
2023-12-17T03:16:38.893Z,15.65
2023-12-17T03:19:05.597Z,16.50
2023-12-17T03:21:32.285Z,16.44
2023-12-17T03:23:58.972Z,16.74
2023-12-17T03:26:25.614Z,16.26
2023-12-17T03:28:52.368Z,16.20
2023-12-17T03:31:19.052Z,15.16
2023-12-17T03:33:45.923Z,14.92
2023-12-17T03:36:12.671Z,16.34
2023-12-17T03:38:39.282Z,16.70
2023-12-17T03:41:05.867Z,15.37
2023-12-17T03:43:32.449Z,15.03
2023-12-17T03:45:59.019Z,13.68
2023-12-17T03:48:25.745Z,13.49
2023-12-17T03:50:52.435Z,13.79
2023-12-17T03:53:19.082Z,13.58
2023-12-17T03:55:45.697Z,13.74
2023-12-17T03:58:12.321Z,14.15
2023-12-17T04:00:38.954Z,13.22
2023-12-17T04:03:05.606Z,13.29
2023-12-17T04:05:32.303Z,13.04
2023-12-17T04:07:58.937Z,13.76
2023-12-17T04:10:25.531Z,13.75
2023-12-17T04:12:52.130Z,13.64
2023-12-17T04:15:18.813Z,14.51
2023-12-17T04:17:45.648Z,14.88
2023-12-17T04:20:12.270Z,16.04
2023-12-17T04:22:38.839Z,15.99
2023-12-17T04:25:05.424Z,17.01
2023-12-17T04:27:32.066Z,17.13
2023-12-17T04:29:58.648Z,17.34
2023-12-17T04:32:25.397Z,17.02
2023-12-17T04:34:52.058Z,16.46
2023-12-17T04:37:18.653Z,16.75
2023-12-17T04:39:45.244Z,16.46
2023-12-17T04:42:11.836Z,15.54
2023-12-17T04:44:38.442Z,15.66
2023-12-17T04:47:05.057Z,16.52
2023-12-17T04:49:31.736Z,16.94
2023-12-17T04:51:58.496Z,17.77
2023-12-17T04:54:25.289Z,18.26
2023-12-17T04:56:51.942Z,17.42
2023-12-17T04:59:18.673Z,17.08
2023-12-17T05:01:45.250Z,18.13
2023-12-17T05:04:12.030Z,18.52
2023-12-17T05:06:38.683Z,18.06
2023-12-17T05:09:05.240Z,18.75
2023-12-17T05:11:31.689Z,19.09
2023-12-17T05:13:58.180Z,18.39
2023-12-17T05:16:24.613Z,18.18
2023-12-17T05:18:51.355Z,18.49
2023-12-17T05:21:18.420Z,18.45
2023-12-17T05:23:45.478Z,17.90
2023-12-17T05:26:11.936Z,18.63
2023-12-17T05:28:38.363Z,18.95
2023-12-17T05:31:04.891Z,18.41
2023-12-17T05:33:31.510Z,18.84
2023-12-17T05:35:58.048Z,18.81
2023-12-17T05:38:24.520Z,15.89
2023-12-17T05:40:50.975Z,15.61
2023-12-17T05:43:17.421Z,15.60
2023-12-17T05:45:50.905Z,16.44
2023-12-17T05:48:24.927Z,16.96
2023-12-17T05:50:51.578Z,18.85
2023-12-17T05:53:18.260Z,19.53
2023-12-17T05:55:46.388Z,19.58
2023-12-17T05:58:12.821Z,18.42
2023-12-17T06:00:39.283Z,17.28
2023-12-17T06:03:05.854Z,17.09
2023-12-17T06:05:32.371Z,16.91
2023-12-17T06:07:59.046Z,17.65
2023-12-17T06:10:25.677Z,18.18
2023-12-17T06:12:52.389Z,18.81
2023-12-17T06:15:19.012Z,20.12
2023-12-17T06:17:45.681Z,19.28
2023-12-17T06:20:12.333Z,19.92
2023-12-17T06:22:39.257Z,20.10
2023-12-17T06:25:05.863Z,20.10
2023-12-17T06:27:32.667Z,19.67
2023-12-17T06:29:59.384Z,20.12
2023-12-17T06:32:26.011Z,19.42
2023-12-17T06:34:52.694Z,20.63
2023-12-17T06:37:19.302Z,20.76
2023-12-17T06:39:45.887Z,20.94
2023-12-17T06:42:12.536Z,20.71
2023-12-17T06:44:39.167Z,20.50
2023-12-17T06:47:14.203Z,21.10
2023-12-17T06:49:49.133Z,20.93
2023-12-17T06:52:15.801Z,20.74
2023-12-17T06:54:42.441Z,20.93
2023-12-17T06:57:09.049Z,20.90
2023-12-17T06:59:35.651Z,21.07
2023-12-17T07:02:02.292Z,20.95
2023-12-17T07:04:29.019Z,21.16
2023-12-17T07:06:55.616Z,20.87
2023-12-17T07:09:22.300Z,21.07
2023-12-17T07:11:48.983Z,20.38
2023-12-17T07:14:15.666Z,20.33
2023-12-17T07:16:42.252Z,20.71
2023-12-17T07:19:08.985Z,20.68
2023-12-17T07:21:35.667Z,20.77
2023-12-17T07:24:02.345Z,21.13
2023-12-17T07:26:28.971Z,21.21
2023-12-17T07:28:55.582Z,20.61
2023-12-17T07:31:22.357Z,21.17
2023-12-17T07:33:49.135Z,21.41
2023-12-17T07:36:15.829Z,20.86
2023-12-17T07:38:42.420Z,21.94
2023-12-17T07:41:09.024Z,18.92
2023-12-17T07:43:35.618Z,18.29
2023-12-17T07:46:02.215Z,17.72
2023-12-17T07:48:28.907Z,18.27
2023-12-17T07:50:55.809Z,18.51
2023-12-17T07:53:22.492Z,19.75
2023-12-17T07:55:49.094Z,19.54
2023-12-17T07:58:15.703Z,20.52
2023-12-17T08:00:42.378Z,20.88
2023-12-17T08:03:09.078Z,20.80
2023-12-17T08:05:35.886Z,19.00
2023-12-17T08:08:02.518Z,18.30
2023-12-17T08:10:29.185Z,17.99
2023-12-17T08:12:55.802Z,18.64
2023-12-17T08:15:22.461Z,18.42
2023-12-17T08:17:49.164Z,19.53
2023-12-17T08:20:15.872Z,18.76
2023-12-17T08:22:42.480Z,18.80
2023-12-17T08:25:09.104Z,19.26
2023-12-17T08:27:35.708Z,19.96
2023-12-17T08:30:02.337Z,26.20
2023-12-17T08:32:28.975Z,23.65
2023-12-17T08:34:55.598Z,21.18
2023-12-17T08:37:22.260Z,20.94
2023-12-17T08:39:48.935Z,20.08
2023-12-17T08:42:15.602Z,20.20
2023-12-17T08:44:43.140Z,19.99
2023-12-17T08:47:09.757Z,20.64
2023-12-17T08:49:36.476Z,20.18
2023-12-17T08:52:03.117Z,20.80
2023-12-17T08:54:29.737Z,20.27
2023-12-17T08:56:56.425Z,19.73
2023-12-17T08:59:23.060Z,20.31
2023-12-17T09:01:49.665Z,20.59
2023-12-17T09:04:16.335Z,19.78
2023-12-17T09:06:42.910Z,20.48
2023-12-17T09:09:09.598Z,21.08
2023-12-17T09:11:36.186Z,19.66
2023-12-17T09:14:02.773Z,19.93
2023-12-17T09:16:29.354Z,20.09
2023-12-17T09:18:56.018Z,20.03
2023-12-17T09:21:22.688Z,19.79
2023-12-17T09:23:49.327Z,20.21
2023-12-17T09:26:15.960Z,19.95
2023-12-17T09:28:42.732Z,19.66
2023-12-17T09:31:09.367Z,20.04
2023-12-17T09:33:36.240Z,19.67
2023-12-17T09:36:02.940Z,20.33
2023-12-17T09:38:29.553Z,19.96
2023-12-17T09:40:56.164Z,19.77
2023-12-17T09:43:22.816Z,20.10
2023-12-17T09:45:49.419Z,19.85
2023-12-17T09:48:16.302Z,20.20
2023-12-17T09:50:42.936Z,19.21
2023-12-17T09:53:09.525Z,20.10
2023-12-17T09:55:36.180Z,19.85
2023-12-17T09:58:02.843Z,19.74
2023-12-17T10:00:29.614Z,19.97
2023-12-17T10:02:56.479Z,20.20
2023-12-17T10:05:23.152Z,20.43
2023-12-17T10:07:49.772Z,20.29
2023-12-17T10:10:16.378Z,19.93
2023-12-17T10:12:44.711Z,19.77
2023-12-17T10:15:12.448Z,20.61
2023-12-17T10:17:39.261Z,20.61
2023-12-17T10:20:08.595Z,20.43
2023-12-17T10:22:35.223Z,20.78
2023-12-17T10:25:01.917Z,20.42
2023-12-17T10:27:28.719Z,20.16
2023-12-17T10:29:55.375Z,20.31
2023-12-17T10:32:21.885Z,20.52
2023-12-17T10:34:48.512Z,40.29
2023-12-17T10:37:15.187Z,55.95
2023-12-17T10:39:41.620Z,44.38
2023-12-17T10:42:08.131Z,30.22
2023-12-17T10:44:34.598Z,23.27
2023-12-17T10:47:01.062Z,24.52
2023-12-17T10:49:27.601Z,26.49
2023-12-17T10:51:54.100Z,31.69
2023-12-17T10:54:20.583Z,27.32
2023-12-17T10:56:47.072Z,23.20
2023-12-17T10:59:15.685Z,24.37
2023-12-17T11:01:46.411Z,26.53
2023-12-17T11:04:12.976Z,23.01
2023-12-17T11:06:39.464Z,23.51
2023-12-17T11:09:05.949Z,24.84
2023-12-17T11:11:32.454Z,24.81
2023-12-17T11:13:59.056Z,24.53
2023-12-17T11:16:25.772Z,24.75
2023-12-17T11:18:52.389Z,23.86
2023-12-17T11:21:18.969Z,24.84
2023-12-17T11:23:45.461Z,24.62
2023-12-17T11:26:11.988Z,24.21
2023-12-17T11:28:38.590Z,25.86
2023-12-17T11:31:05.227Z,26.61
2023-12-17T11:33:32.012Z,26.65
2023-12-17T11:35:58.742Z,28.16
2023-12-17T11:38:25.555Z,27.70
2023-12-17T11:40:52.189Z,27.23
2023-12-17T11:43:18.854Z,27.84
2023-12-17T11:45:46.050Z,28.24
2023-12-17T11:48:13.085Z,27.95
2023-12-17T11:50:39.706Z,29.33
2023-12-17T11:53:06.335Z,29.68
2023-12-17T11:55:33.579Z,28.60
2023-12-17T11:58:00.193Z,28.87
2023-12-17T12:00:26.812Z,27.93
2023-12-17T12:02:53.493Z,29.04
2023-12-17T12:05:20.354Z,29.53
2023-12-17T12:07:47.088Z,29.55
2023-12-17T12:10:13.799Z,29.01
2023-12-17T12:12:40.501Z,29.55
2023-12-17T12:15:07.210Z,29.06
2023-12-17T12:17:33.995Z,29.69
2023-12-17T12:20:00.997Z,30.02
2023-12-17T12:22:27.933Z,29.39
2023-12-17T12:24:54.539Z,28.91
2023-12-17T12:27:21.152Z,28.89
2023-12-17T12:29:47.767Z,27.23
2023-12-17T12:32:14.370Z,26.55
2023-12-17T12:34:42.175Z,28.29
2023-12-17T12:37:08.767Z,27.61
2023-12-17T12:39:45.147Z,27.31
2023-12-17T12:42:21.622Z,27.92
2023-12-17T12:44:48.289Z,27.91
2023-12-17T12:47:14.871Z,27.13
2023-12-17T12:49:41.602Z,26.38
2023-12-17T12:52:08.302Z,25.38
2023-12-17T12:54:35.012Z,25.84
2023-12-17T12:57:01.748Z,25.42
2023-12-17T12:59:28.371Z,27.58
2023-12-17T13:01:54.959Z,26.48
2023-12-17T13:04:21.579Z,25.41
2023-12-17T13:06:48.214Z,23.39
2023-12-17T13:09:15.931Z,24.21
2023-12-17T13:11:43.648Z,24.83
2023-12-17T13:14:10.234Z,25.50
2023-12-17T13:16:36.836Z,24.54
2023-12-17T13:19:08.609Z,26.82
2023-12-17T13:21:41.062Z,25.50
2023-12-17T13:24:07.753Z,25.19
2023-12-17T13:26:34.457Z,24.25
2023-12-17T13:29:01.053Z,23.90
2023-12-17T13:31:27.686Z,25.30
2023-12-17T13:33:54.430Z,24.16
2023-12-17T13:36:21.093Z,24.52
2023-12-17T13:38:47.676Z,24.45
2023-12-17T13:41:14.306Z,25.22
2023-12-17T13:43:40.905Z,24.76
2023-12-17T13:46:07.507Z,23.85
2023-12-17T13:48:34.801Z,24.63
2023-12-17T13:51:01.635Z,24.84
2023-12-17T13:53:28.285Z,24.77
2023-12-17T13:55:54.851Z,24.53
2023-12-17T13:58:21.450Z,23.71
2023-12-17T14:00:48.154Z,24.49
2023-12-17T14:03:14.968Z,23.78
2023-12-17T14:05:41.659Z,24.72
2023-12-17T14:08:08.237Z,24.61
2023-12-17T14:10:34.802Z,23.91
2023-12-17T14:13:01.419Z,23.96
2023-12-17T14:15:28.136Z,23.04
2023-12-17T14:17:54.930Z,22.93
2023-12-17T14:20:25.508Z,23.45
2023-12-17T14:22:52.793Z,22.78
2023-12-17T14:25:19.406Z,23.31
2023-12-17T14:27:46.217Z,23.20
2023-12-17T14:30:13.118Z,23.50
2023-12-17T14:32:39.774Z,23.49
2023-12-17T14:35:06.422Z,22.56
2023-12-17T14:37:33.067Z,22.85
2023-12-17T14:39:59.685Z,25.78
2023-12-17T14:42:26.374Z,35.21
2023-12-17T14:44:53.245Z,24.45
2023-12-17T14:47:19.839Z,22.89
2023-12-17T14:49:46.509Z,23.03
2023-12-17T14:52:13.146Z,22.55
2023-12-17T14:54:39.809Z,22.31
2023-12-17T14:57:06.651Z,22.74
2023-12-17T14:59:33.577Z,22.14
2023-12-17T15:02:00.268Z,20.89
2023-12-17T15:04:26.896Z,21.48
2023-12-17T15:06:53.547Z,21.76
2023-12-17T15:09:20.217Z,22.32
2023-12-17T15:11:46.857Z,22.38
2023-12-17T15:14:13.473Z,21.71
2023-12-17T15:16:40.093Z,21.33
2023-12-17T15:19:06.738Z,21.83
2023-12-17T15:21:33.369Z,22.78
2023-12-17T15:24:00.088Z,22.29
2023-12-17T15:26:26.831Z,23.32
2023-12-17T15:28:53.420Z,22.24
2023-12-17T15:31:20.030Z,21.88
2023-12-17T15:33:46.851Z,23.10
2023-12-17T15:36:13.649Z,23.13
2023-12-17T15:38:41.350Z,22.46
2023-12-17T15:41:07.977Z,21.84
2023-12-17T15:43:34.635Z,22.34
2023-12-17T15:46:01.246Z,22.77
2023-12-17T15:48:27.934Z,23.25
2023-12-17T15:50:54.657Z,23.66
2023-12-17T15:53:21.222Z,23.76
2023-12-17T15:55:47.827Z,23.39
2023-12-17T15:58:14.396Z,23.43
2023-12-17T16:00:41.221Z,24.30
2023-12-17T16:03:07.978Z,23.54
2023-12-17T16:05:34.582Z,23.90
2023-12-17T16:08:01.183Z,24.08
2023-12-17T16:10:27.784Z,23.78
2023-12-17T16:12:54.381Z,23.89
2023-12-17T16:15:21.106Z,24.17
2023-12-17T16:17:47.803Z,23.44
2023-12-17T16:20:14.647Z,23.08
2023-12-17T16:22:41.509Z,22.40
2023-12-17T16:25:08.254Z,23.70
2023-12-17T16:27:34.913Z,23.15
2023-12-17T16:30:01.505Z,23.72
2023-12-17T16:32:30.397Z,23.65
2023-12-17T16:34:57.993Z,23.54
2023-12-17T16:37:24.553Z,24.59
2023-12-17T16:39:51.141Z,23.62
2023-12-17T16:42:17.776Z,22.74
2023-12-17T16:44:45.024Z,22.58
2023-12-17T16:47:11.717Z,23.68
2023-12-17T16:49:38.585Z,23.71
2023-12-17T16:52:05.268Z,23.08
2023-12-17T16:54:31.862Z,23.79
2023-12-17T16:56:58.484Z,24.60
2023-12-17T16:59:25.126Z,24.48
2023-12-17T17:01:51.736Z,23.66
2023-12-17T17:04:18.329Z,24.43
2023-12-17T17:06:45.072Z,24.74
2023-12-17T17:09:11.701Z,24.06
2023-12-17T17:11:38.312Z,23.11
2023-12-17T17:14:04.905Z,23.82
2023-12-17T17:16:31.511Z,23.70
2023-12-17T17:18:58.161Z,24.29
2023-12-17T17:21:25.324Z,25.80
2023-12-17T17:23:51.943Z,25.41
2023-12-17T17:26:18.545Z,23.88
2023-12-17T17:28:45.165Z,23.13
2023-12-17T17:31:11.762Z,22.59
2023-12-17T17:33:38.537Z,23.67
2023-12-17T17:36:05.242Z,23.05
2023-12-17T17:38:31.835Z,23.65
2023-12-17T17:40:58.464Z,23.63
2023-12-17T17:43:25.085Z,23.50
2023-12-17T17:45:51.699Z,25.14
2023-12-17T17:48:18.394Z,25.09
2023-12-17T17:50:45.085Z,26.16
2023-12-17T17:53:11.674Z,27.10
2023-12-17T17:55:38.244Z,27.25
2023-12-17T17:58:04.843Z,27.74
2023-12-17T18:00:31.460Z,28.31
2023-12-17T18:02:58.125Z,28.28
2023-12-17T18:05:24.773Z,28.37
2023-12-17T18:07:51.375Z,28.51
2023-12-17T18:10:18.017Z,29.32
2023-12-17T18:12:44.810Z,28.56
2023-12-17T18:15:11.628Z,29.54
2023-12-17T18:17:38.217Z,29.84
2023-12-17T18:20:04.855Z,28.98
2023-12-17T18:22:31.424Z,28.90
2023-12-17T18:24:58.021Z,28.94
2023-12-17T18:27:24.600Z,29.46
2023-12-17T18:29:51.349Z,29.60
2023-12-17T18:32:17.979Z,28.40
2023-12-17T18:34:44.577Z,28.38
2023-12-17T18:37:11.203Z,29.71
2023-12-17T18:39:37.858Z,29.95
2023-12-17T18:42:04.526Z,30.21
2023-12-17T18:44:31.167Z,31.50
2023-12-17T18:46:57.605Z,30.77
2023-12-17T18:49:24.574Z,31.32
2023-12-17T18:51:51.243Z,30.39
2023-12-17T18:54:17.692Z,30.55
2023-12-17T18:56:44.171Z,31.02
2023-12-17T18:59:10.665Z,30.34
2023-12-17T19:01:37.195Z,30.84
2023-12-17T19:04:03.879Z,29.67
2023-12-17T19:06:30.453Z,30.60
2023-12-17T19:08:56.930Z,29.22
2023-12-17T19:11:23.364Z,29.34
2023-12-17T19:13:49.843Z,30.28
2023-12-17T19:16:16.288Z,30.71
2023-12-17T19:18:42.822Z,31.39
2023-12-17T19:21:09.310Z,30.98
2023-12-17T19:23:35.817Z,31.52
2023-12-17T19:26:02.239Z,32.43
2023-12-17T19:28:28.677Z,31.01
2023-12-17T19:30:55.400Z,30.88
2023-12-17T19:33:21.970Z,30.87
2023-12-17T19:35:48.449Z,30.85
2023-12-17T19:38:14.933Z,32.17
2023-12-17T19:40:41.395Z,32.74
2023-12-17T19:43:07.864Z,31.58
2023-12-17T19:45:34.510Z,32.03
2023-12-17T19:48:01.185Z,31.72
2023-12-17T19:50:27.842Z,31.61
2023-12-17T19:52:54.449Z,31.40
2023-12-17T19:55:21.097Z,30.83
2023-12-17T19:57:47.691Z,31.42
2023-12-17T20:00:14.330Z,31.67
2023-12-17T20:02:41.392Z,32.73
2023-12-17T20:05:08.411Z,33.04
2023-12-17T20:07:35.305Z,33.00
2023-12-17T20:10:02.135Z,32.46
2023-12-17T20:12:28.847Z,34.37
2023-12-17T20:14:55.568Z,33.69
2023-12-17T20:17:22.187Z,34.04
2023-12-17T20:19:48.878Z,34.74
2023-12-17T20:22:15.690Z,34.86
2023-12-17T20:24:42.323Z,33.49
2023-12-17T20:27:08.975Z,33.62
2023-12-17T20:29:35.581Z,35.32
2023-12-17T20:32:02.234Z,34.05
2023-12-17T20:34:28.870Z,35.90
2023-12-17T20:36:55.522Z,35.58
2023-12-17T20:39:22.123Z,35.08
2023-12-17T20:41:48.726Z,37.12
2023-12-17T20:44:15.303Z,35.54
2023-12-17T20:46:42.027Z,36.89
2023-12-17T20:49:08.678Z,37.10
2023-12-17T20:51:35.517Z,35.82
2023-12-17T20:54:02.175Z,36.35
2023-12-17T20:56:28.792Z,37.13
2023-12-17T20:58:55.367Z,36.32
2023-12-17T21:01:21.967Z,37.27
2023-12-17T21:03:48.751Z,35.62
2023-12-17T21:06:15.931Z,35.79
2023-12-17T21:08:42.559Z,36.57
2023-12-17T21:11:09.134Z,37.28
2023-12-17T21:13:35.726Z,39.24
2023-12-17T21:16:02.356Z,37.43
2023-12-17T21:18:29.229Z,37.79
2023-12-17T21:20:55.945Z,38.44
2023-12-17T21:23:22.556Z,37.57
2023-12-17T21:25:49.147Z,38.82
2023-12-17T21:28:15.841Z,38.41
2023-12-17T21:30:42.562Z,38.20
2023-12-17T21:33:09.491Z,36.65
2023-12-17T21:35:36.209Z,37.46
2023-12-17T21:38:02.862Z,36.33
2023-12-17T21:40:29.443Z,37.25
2023-12-17T21:42:56.069Z,37.50
2023-12-17T21:45:22.663Z,38.33
2023-12-17T21:47:49.346Z,40.65
2023-12-17T21:50:15.955Z,39.19
2023-12-17T21:52:42.567Z,46.01
2023-12-17T21:55:09.161Z,39.85
2023-12-17T21:57:41.482Z,40.89
2023-12-17T22:00:10.473Z,56.07
2023-12-17T22:02:37.425Z,39.12
2023-12-17T22:05:04.015Z,40.40
2023-12-17T22:07:30.720Z,39.59
2023-12-17T22:09:57.484Z,38.91
2023-12-17T22:12:24.274Z,39.15
2023-12-17T22:14:50.898Z,41.19
2023-12-17T22:17:17.506Z,41.14
2023-12-17T22:19:44.280Z,39.71
2023-12-17T22:22:10.938Z,40.06
2023-12-17T22:24:37.601Z,38.91
2023-12-17T22:27:04.282Z,39.54
2023-12-17T22:29:30.986Z,41.37
2023-12-17T22:31:57.766Z,39.48
2023-12-17T22:34:24.667Z,39.48
2023-12-17T22:36:51.374Z,39.90
2023-12-17T22:39:18.014Z,39.80
2023-12-17T22:41:44.605Z,39.78
2023-12-17T22:44:11.346Z,40.11
2023-12-17T22:46:37.932Z,40.49
2023-12-17T22:49:04.680Z,40.82
2023-12-17T22:51:31.330Z,42.65
2023-12-17T22:53:57.942Z,40.53
2023-12-17T22:56:24.651Z,41.37
2023-12-17T22:58:51.261Z,40.29
2023-12-17T23:01:19.016Z,41.11
2023-12-17T23:03:47.051Z,39.78
2023-12-17T23:06:13.732Z,41.09
2023-12-17T23:08:40.394Z,42.12
2023-12-17T23:11:07.002Z,42.38
2023-12-17T23:13:33.638Z,41.23
2023-12-17T23:16:00.225Z,40.39
2023-12-17T23:18:26.937Z,41.02
2023-12-17T23:20:53.610Z,40.80
2023-12-17T23:23:20.204Z,41.00
2023-12-17T23:25:46.790Z,40.10
2023-12-17T23:28:13.398Z,40.97
2023-12-17T23:30:40.117Z,40.84
2023-12-17T23:33:06.890Z,42.69
2023-12-17T23:35:33.583Z,40.20
2023-12-17T23:38:00.210Z,40.70
2023-12-17T23:40:26.854Z,43.60
2023-12-17T23:42:53.486Z,42.34
2023-12-17T23:45:20.098Z,41.19
2023-12-17T23:47:46.998Z,42.11
2023-12-17T23:50:13.633Z,43.88
2023-12-17T23:52:40.213Z,42.03
2023-12-17T23:55:06.801Z,42.82
2023-12-17T23:57:33.461Z,40.93
